Bgc Partners Inc-Cl A (BGCP) Latest Bloomsberg Price


Mffais Ranking #1250 Overall / #7 Industry
Industry: Institutional Brokerage

Number of Companies: 144 (Ranking #1202 Overall/#8 Industry)
Inflow: $ 34,776 (K) (Ranking #1490 Overall/#8 Industry)
Outflow: $ -35,030 (K)
Mffais Flow: $ -254 (K) (Ranking #1250 Overall/#7 Industry)


Receive a FREE weekly executive review of stocks moving into the top 10, taking the top industy spot or moving up within their industry. Sent directly to your Inbox every Saturday. Sign up today and get last week's review immediately sent to you.

We value and respect your privacy. Please read our Terms and Conditions which states our firm commitment to your privacy. Your email address will not be shared with a third party, nor will it be sold or used for purposes other than subscription for the weekly review.

Owner CPOR Shares Action Qty Chg Invested (K) Total Current Value (K)
Cardinal Capital Management Llc Ct 2016-09-30 7,464,552 Added More 717,136 $ 6,475 $ 67,404
Raymond James Associates 2016-09-30 1,757,287 Added More 648,672 $ 5,857 $ 15,868
Dimensional Fund Advisors Lp 2016-09-30 5,252,977 Added More 407,404 $ 3,678 $ 47,434
Edge Asset Management Inc 2016-09-30 2,833,477 Added More 397,020 $ 3,585 $ 25,586
Raymond James Financial Services Advisors Inc 2016-09-30 744,517 Added More 299,861 $ 2,707 $ 6,722
Ahl Partners Llp 2016-09-30 178,322 New Holding 178,322 $ 1,610 $ 1,610
Northern Trust Corp 2016-09-30 3,555,817 Added More 177,634 $ 1,604 $ 32,109
Parametric Portfolio Associates Llc 2016-09-30 869,745 Added More 118,244 $ 1,067 $ 7,853
Menta Capital Llc 2016-09-30 81,004 New Holding 81,004 $ 731 $ 731
Doheny Asset Management Ca 2016-09-30 808,917 Added More 73,034 $ 659 $ 7,304
Guggenheim Capital Llc 2016-09-30 248,727 Added More 68,907 $ 622 $ 2,246
Shikiar Asset Management Inc 2016-09-30 713,725 Added More 55,875 $ 504 $ 6,444
Tfs Capital Llc 2016-09-30 52,976 New Holding 52,976 $ 478 $ 478
Cipher Capital Lp 2016-09-30 155,735 Added More 43,321 $ 391 $ 1,406
Granahan Investment Management Inc Ma 2016-09-30 821,500 Added More 35,900 $ 324 $ 7,418
Spot Trading L L C 2016-09-30 35,219 New Holding 35,219 $ 318 $ 318
Park Circle Co 2016-09-30 133,000 Added More 31,000 $ 279 $ 1,200
Wayne Hummer Investments L L C 2016-09-30 293,833 Added More 30,384 $ 274 $ 2,653
Kcg Holdings Inc 2016-09-30 106,983 Added More 28,923 $ 261 $ 966
Simplex Trading Llc 2016-09-30 45,244 Added More 28,849 $ 260 $ 408
Silver Capital Management Llc 2016-09-30 131,390 Added More 27,900 $ 251 $ 1,186
Fort Point Capital Partners Llc 2016-09-30 196,778 Added More 26,960 $ 243 $ 1,776
Blackrock Inc 2016-09-30 41,512 Added More 24,962 $ 225 $ 374
Opus Capital Group Llc 2016-09-30 23,245 New Holding 23,245 $ 209 $ 209
Capstone Investment Advisors Llc 2016-09-30 63,635 Added More 22,029 $ 198 $ 574
Pdt Partners Llc 2016-09-30 19,600 New Holding 19,600 $ 176 $ 176
Stoneridge Investment Partners Llc 2016-09-30 180,015 Added More 19,292 $ 174 $ 1,625
Trexquant Investment Lp 2016-09-30 16,972 New Holding 16,972 $ 153 $ 153
Walleye Trading Llc 2016-09-30 50,000 Added More 15,400 $ 139 $ 451
Wealthsource Partners Llc 2016-09-30 15,250 New Holding 15,250 $ 137 $ 137
Rhumbline Advisers 2016-09-30 227,914 Added More 12,300 $ 111 $ 2,058
Ramsey Quantitative Systems 2016-09-30 71,388 Added More 11,154 $ 100 $ 644
Legal General Group Plc 2016-09-30 55,205 Added More 10,007 $ 90 $ 498
Nisa Investment Advisors Llc 2016-09-30 10,000 New Holding 10,000 $ 90 $ 90
West Chester Capital Advisors Inc 2016-09-30 10,000 New Holding 10,000 $ 90 $ 90
United Services Automobile Association 2016-09-30 121,900 Added More 8,200 $ 74 $ 1,100
Cutler Group Lp 2016-09-30 11,076 Added More 7,544 $ 68 $ 100
Commonwealth Equity Services Inc 2016-09-30 167,474 Added More 7,527 $ 67 $ 1,512
Blackrock Investment Management Llc 2016-09-30 817,347 Added More 7,209 $ 65 $ 7,380
Ladenburg Thalmann Financial Services Inc 2016-09-30 94,697 Added More 5,274 $ 47 $ 855
Stevens First Principles Investment Advisors 2016-09-30 4,700 New Holding 4,700 $ 42 $ 42
Baldwin Brothers Inc Ma 2016-09-30 20,500 Added More 4,000 $ 36 $ 185
Sei Investments Co 2016-09-30 3,850 New Holding 3,850 $ 34 $ 34
California State Teachers Retirement System 2016-09-30 460,936 Added More 3,600 $ 32 $ 4,162
Dekabank Deutsche Girozentrale 2016-09-30 3,573 New Holding 3,573 $ 32 $ 32
Horizon Kinetics Llc 2016-09-30 214,546 Added More 3,190 $ 28 $ 1,937
Creative Planning 2016-09-30 15,139 Added More 3,003 $ 27 $ 136
Alpine Woods Capital Investors Llc 2016-09-30 20,000 Added More 3,000 $ 27 $ 180
Kistler-Tiffany Companies Llc 2016-09-30 2,646 New Holding 2,646 $ 23 $ 23
Springbok Capital Management Llc 2016-09-30 2,300 New Holding 2,300 $ 20 $ 20
Schnieders Capital Management Llc 2016-09-30 14,500 Added More 1,250 $ 11 $ 130
Blair William Co Il 2016-09-30 11,740 Added More 1,139 $ 10 $ 106
Scotia Capital Inc 2016-09-30 28,600 Added More 1,000 $ 9 $ 258
Teachers Advisors Inc 2016-09-30 348,066 Added More 990 $ 8 $ 3,143
Stifel Financial Corp 2016-09-30 26,969 Added More 919 $ 8 $ 243
Advisor Group Inc 2016-09-30 5,724 Added More 753 $ 6 $ 51
Envestnet Asset Management Inc 2016-09-30 1,638 Added More 259 $ 2 $ 14
American International Group Inc 2016-09-30 125,553 Added More 192 $ 1 $ 1,133
Philadelphia Trust Co 2016-09-30 35,075 Added More 100 $ 0 $ 316
Assetmark Inc 2016-09-30 2,635 Added More 78 $ 0 $ 23
Ims Capital Management 2016-09-30 16,078 Added More 56 $ 0 $ 145
Gotham Asset Management Llc 2016-09-30 28,377 Added More 49 $ 0 $ 256
Global X Management Co Llc 2016-09-30 799,377 Added More 39 $ 0 $ 7,218
Carroll Financial Associates Inc 2016-09-30 4,938 Added More 24 $ 0 $ 44
Wealthtrust-Arizona Llc 2016-09-30 207 Added More 4 $ 0 $ 1
Howland Capital Management Llc 2016-09-30 10,400 No Change 0 $ 0 $ 93
Us Bancorp De 2016-09-30 13,933 No Change 0 $ 0 $ 125
M T Bank Corp 2016-09-30 31,426 No Change 0 $ 0 $ 283
Capital Guardian Trust Co 2016-09-30 3,875 No Change 0 $ 0 $ 34
Howe Rusling Inc 2016-09-30 200 No Change 0 $ 0 $ 1
Strategic Investment Management Llc 2016-09-30 13,699 No Change 0 $ 0 $ 123
Mackenzie Financial Corp 2016-09-30 22,373 No Change 0 $ 0 $ 202
Spirit Of America Management Corp Ny 2016-09-30 32,644 No Change 0 $ 0 $ 294
Bessemer Group Inc 2016-09-30 201,500 No Change 0 $ 0 $ 1,819
Dreman Value Management L L C 2016-09-30 894 No Change 0 $ 0 $ 8
Nationwide Fund Advisors 2016-09-30 215,462 No Change 0 $ 0 $ 1,945
North Point Portfolio Managers Corp Oh 2016-09-30 25,000 No Change 0 $ 0 $ 225
Argent Capital Management Llc 2016-09-30 179,850 No Change 0 $ 0 $ 1,624
Buckhead Capital Management Llc 2016-09-30 144,880 No Change 0 $ 0 $ 1,308
Lmm Llc 2016-09-30 226,400 No Change 0 $ 0 $ 2,044
Whittier Trust Co 2016-09-30 5,506 No Change 0 $ 0 $ 49
Yorktown Management Research Co Inc 2016-09-30 662,000 No Change 0 $ 0 $ 5,977
Blb B Advisors Llc 2016-09-30 14,910 No Change 0 $ 0 $ 134
Wealthtrust Axiom Llc 2016-09-30 10,000 No Change 0 $ 0 $ 90
Diversified Trust Co 2016-09-30 59,639 No Change 0 $ 0 $ 538
Ashmore Group Plc 2016-09-30 9,000 No Change 0 $ 0 $ 81
First Allied Advisory Services Inc 2016-09-30 16,416 No Change 0 $ 0 $ 148
Nuveen Asset Management Llc 2016-09-30 14,411 No Change 0 $ 0 $ 130
Regent Investment Management Llc 2016-09-30 12,000 No Change 0 $ 0 $ 108
Tnb Financial 2016-09-30 35,000 No Change 0 $ 0 $ 316
Lba Wealth Management Llc 2016-09-30 2,000 No Change 0 $ 0 $ 18
Moors Cabot Inc 2016-09-30 10,900 No Change 0 $ 0 $ 98
Proficio Capital Partners Llc 2016-09-30 1,512 No Change 0 $ 0 $ 13
Hgk Asset Management Inc 2016-09-30 37,241 Sold Some -169 $ -1 $ 336
Squarepoint Ops Llc 2016-09-30 15,300 Sold Some -200 $ -1 $ 138
Stanley-Laman Group Ltd 2016-09-30 25,108 Sold Some -705 $ -6 $ 226
Msi Financial Services Inc 2016-09-30 5,389 Sold Some -950 $ -8 $ 48
First Manhattan Co 2016-09-30 0 Sold All -1,000 $ -9 $ 0
Tortoise Investment Management Llc 2016-09-30 0 Sold All -1,000 $ -9 $ 0
Pnc Financial Services Group Inc 2016-09-30 28,408 Sold Some -1,019 $ -9 $ 256
Enterprise Financial Services Corp 2016-09-30 0 Sold All -1,642 $ -14 $ 0
Archford Capital Strategies Llc 2016-09-30 120,192 Sold Some -2,233 $ -20 $ 1,085
Strs Ohio 2016-09-30 64,000 Sold Some -2,400 $ -21 $ 577
Cubist Systematic Strategies Llc 2016-09-30 11,687 Sold Some -3,119 $ -28 $ 105
Aperio Group Llc 2016-09-30 43,798 Sold Some -4,349 $ -39 $ 395
Proshare Advisors Llc 2016-09-30 21,501 Sold Some -5,134 $ -46 $ 194
New York State Common Retirement Fund 2016-09-30 348,292 Sold Some -5,563 $ -50 $ 3,145
Teacher Retirement System Of Texas 2016-09-30 21,659 Sold Some -6,649 $ -60 $ 195
Emerald Acquisition Ltd 2016-09-30 1,563,424 Sold Some -7,520 $ -67 $ 14,117
Cambridge Investment Research Advisors Inc 2016-09-30 72,796 Sold Some -7,790 $ -70 $ 657
Swiss National Bank 2016-09-30 324,208 Sold Some -10,100 $ -91 $ 2,927
Miles Capital Inc 2016-09-30 0 Sold All -10,390 $ -93 $ 0
Ifc Holdings Incorporated Fl 2016-09-30 0 Sold All -10,650 $ -96 $ 0
A R T Advisors Llc 2016-09-30 0 Sold All -12,513 $ -112 $ 0
Fox Run Management L L C 2016-09-30 0 Sold All -14,100 $ -127 $ 0
Highland Capital Management Llc 2016-09-30 24,049 Sold Some -16,960 $ -153 $ 217
Sg Americas Securities Llc 2016-09-30 54,962 Sold Some -17,200 $ -155 $ 496
Zurcher Kantonalbank Zurich Cantonalbank 2016-09-30 205,031 Sold Some -17,228 $ -155 $ 1,851
Investors Capital Advisory Services 2016-06-30 44,210 Sold Some -20,449 $ -178 $ 385
Summit Securities Group Llc 2016-09-30 0 Sold All -24,184 $ -218 $ 0
Pacad Investment Ltd 2016-09-30 0 Sold All -24,200 $ -218 $ 0
Cantab Capital Partners Llp 2016-09-30 0 Sold All -26,633 $ -240 $ 0
Secor Capital Advisors Lp 2016-09-30 0 Sold All -28,056 $ -253 $ 0
Capital Fund Management S A 2016-09-30 47,000 Sold Some -28,401 $ -256 $ 424
Eagle Asset Management Inc 2016-09-30 2,160,213 Sold Some -28,407 $ -256 $ 19,506
Quantbot Technologies Lp 2016-09-30 6,788 Sold Some -31,192 $ -281 $ 61
Princeton Alpha Management Lp 2016-09-30 21,031 Sold Some -33,262 $ -300 $ 189
National Asset Management Inc 2016-09-30 0 Sold All -33,581 $ -303 $ 0
Equitec Specialists Llc 2016-09-30 0 Sold All -38,400 $ -346 $ 0
Advisors Capital Management Llc 2016-09-30 1,528,068 Sold Some -41,976 $ -379 $ 13,798
Group One Trading L P 2016-09-30 5,030 Sold Some -50,113 $ -452 $ 45
Everpoint Asset Management Llc 2016-09-30 256,000 Sold Some -51,901 $ -468 $ 2,311
Northpointe Capital Llc 2016-09-30 1,359,066 Sold Some -52,565 $ -474 $ 12,272
Dynamic Technology Lab Private Ltd 2016-09-30 0 Sold All -57,910 $ -522 $ 0
Bank Of Nova Scotia 2016-09-30 108,585 Sold Some -79,720 $ -719 $ 980
Westfield Capital Management Co Lp 2016-09-30 1,904,900 Sold Some -95,745 $ -864 $ 17,201
Peak6 Investments L P 2016-09-30 30,766 Sold Some -136,982 $ -1,236 $ 277
Hsbc Holdings Plc 2016-09-30 53,482 Sold Some -200,766 $ -1,812 $ 482
King Luther Capital Management Corp 2016-09-30 656,520 Sold Some -274,600 $ -2,479 $ 5,928
Greenwood Investments Inc 2016-09-30 130,508 Sold Some -280,000 $ -2,528 $ 1,178
Kortright Capital Partners Lp 2016-06-30 655,500 Sold Some -403,800 $ -3,517 $ 5,709
Redwood Investments Llc 2016-09-30 34,595 Sold Some -460,201 $ -4,155 $ 312
Grantham Mayo Van Otterloo Co Llc 2016-09-30 0 Sold All -566,002 $ -5,110 $ 0
Marshall Wace Llp 2016-09-30 0 Sold All -664,785 $ -6,003 $ 0